KILN

Wilmington Air Park

Airport
ICAO code
KILN
IATA Code
ILN
Summary
ICAO Region
NAM
ICAO Territory
Location

Wilmington, Ohio

Serving
Wilmington
Elevation
1077 ft
Coordinates
39° 25' 40" N , 83° 47' 32" W
KCC
Metar
KILN 191203Z AUTO 28012KT 10SM BKN016 OVC022 17/14 A2995 RMK AO2 T01670139

Description

Public-use airport located 2 nm southeast of the central business district of Wilmington, a city in Clinton County, Ohio, United States. The airport was formerly known as Clinton County Air Force Base.

 

Airport map

Aerial View

SKYbrary Partners:

Safety knowledge contributed by: